createdAt,value
2023-03-02T00:01:31.290Z,12.38
2023-03-02T00:04:00.466Z,13.55
2023-03-02T00:06:31.518Z,12.10
2023-03-02T00:09:02.683Z,13.70
2023-03-02T00:11:31.578Z,13.10
2023-03-02T00:13:58.256Z,12.50
2023-03-02T00:16:25.260Z,13.27
2023-03-02T00:18:51.818Z,13.40
2023-03-02T00:21:18.273Z,14.15
2023-03-02T00:23:45.006Z,14.43
2023-03-02T00:26:11.513Z,14.30
2023-03-02T00:28:37.955Z,14.68
2023-03-02T00:31:05.897Z,13.03
2023-03-02T00:33:33.737Z,15.38
2023-03-02T00:36:00.864Z,14.02
2023-03-02T00:38:27.731Z,14.02
2023-03-02T00:40:55.559Z,15.25
2023-03-02T00:43:27.309Z,13.07
2023-03-02T00:45:56.725Z,13.77
2023-03-02T00:48:23.211Z,14.75
2023-03-02T00:50:49.803Z,14.32
2023-03-02T00:53:17.906Z,14.35
2023-03-02T00:55:53.523Z,14.43
2023-03-02T00:58:21.232Z,14.35
2023-03-02T01:00:47.821Z,14.55
2023-03-02T01:03:14.418Z,14.73
2023-03-02T01:05:40.917Z,14.00
2023-03-02T01:08:07.367Z,14.10
2023-03-02T01:10:34.637Z,13.63
2023-03-02T01:13:01.139Z,14.88
2023-03-02T01:15:27.595Z,14.43
2023-03-02T01:17:54.104Z,15.25
2023-03-02T01:20:20.703Z,13.97
2023-03-02T01:22:47.248Z,14.70
2023-03-02T01:25:13.895Z,13.23
2023-03-02T01:27:40.354Z,15.25
2023-03-02T01:30:07.476Z,14.88
2023-03-02T01:32:34.112Z,14.77
2023-03-02T01:35:00.716Z,14.60
2023-03-02T01:37:27.200Z,14.68
2023-03-02T01:39:53.672Z,15.35
2023-03-02T01:42:20.203Z,14.27
2023-03-02T01:44:52.533Z,14.43
2023-03-02T01:47:26.907Z,15.00
2023-03-02T01:49:58.356Z,15.15
2023-03-02T01:52:26.543Z,14.63
2023-03-02T01:54:56.911Z,15.13
2023-03-02T01:57:29.029Z,14.57
2023-03-02T02:00:01.785Z,14.40
2023-03-02T02:02:29.104Z,14.68
2023-03-02T02:04:56.549Z,15.18
2023-03-02T02:07:23.004Z,15.05
2023-03-02T02:09:52.229Z,13.70
2023-03-02T02:12:22.957Z,14.98
2023-03-02T02:14:50.375Z,15.68
2023-03-02T02:17:18.533Z,15.25
2023-03-02T02:20:20.110Z,14.65
2023-03-02T02:23:09.692Z,13.23
2023-03-02T02:25:58.243Z,13.52
2023-03-02T02:28:30.602Z,14.77
2023-03-02T02:31:22.427Z,12.05
2023-03-02T02:33:56.562Z,13.43
2023-03-02T02:36:33.542Z,13.83
2023-03-02T02:39:04.279Z,13.20
2023-03-02T02:41:36.027Z,13.05
2023-03-02T02:44:02.513Z,13.82
2023-03-02T02:46:29.401Z,14.25
2023-03-02T02:48:55.982Z,13.77
2023-03-02T02:51:28.294Z,12.23
2023-03-02T02:53:59.082Z,15.18
2023-03-02T02:56:32.138Z,13.40
2023-03-02T02:59:16.548Z,14.43
2023-03-02T03:01:44.185Z,13.20
2023-03-02T03:04:14.049Z,14.27
2023-03-02T03:06:53.794Z,13.45
2023-03-02T03:09:21.248Z,12.93
2023-03-02T03:11:57.416Z,13.95
2023-03-02T03:14:36.091Z,14.33
2023-03-02T03:17:02.716Z,12.95
2023-03-02T03:19:32.510Z,14.05
2023-03-02T03:22:02.150Z,12.38
2023-03-02T03:24:30.782Z,14.48
2023-03-02T03:26:58.706Z,13.80
2023-03-02T03:29:27.723Z,12.73
2023-03-02T03:31:57.149Z,12.75
2023-03-02T03:34:24.701Z,13.10
2023-03-02T03:36:52.047Z,11.57
2023-03-02T03:39:19.715Z,11.73
2023-03-02T03:41:46.501Z,12.85
2023-03-02T03:44:12.961Z,11.93
2023-03-02T03:46:39.780Z,12.82
2023-03-02T03:49:06.469Z,12.40
2023-03-02T03:51:35.237Z,11.63
2023-03-02T03:54:08.076Z,12.30
2023-03-02T03:56:39.124Z,12.77
2023-03-02T03:59:08.394Z,12.30
2023-03-02T04:02:04.233Z,10.85
2023-03-02T04:04:34.230Z,11.43
2023-03-02T04:07:01.114Z,11.13
2023-03-02T04:09:27.777Z,10.63
2023-03-02T04:11:55.651Z,11.82
2023-03-02T04:14:23.653Z,11.00
2023-03-02T04:16:51.216Z,12.00
2023-03-02T04:19:17.849Z,11.70
2023-03-02T04:21:47.964Z,13.25
2023-03-02T04:24:18.220Z,11.95
2023-03-02T04:26:45.890Z,11.05
2023-03-02T04:29:13.235Z,11.00
2023-03-02T04:31:40.364Z,11.70
2023-03-02T04:34:08.043Z,12.05
2023-03-02T04:36:37.380Z,10.65
2023-03-02T04:39:05.974Z,11.30
2023-03-02T04:41:32.935Z,12.00
2023-03-02T04:43:59.463Z,11.60
2023-03-02T04:46:27.521Z,11.80
2023-03-02T04:48:55.109Z,12.27
2023-03-02T04:51:24.234Z,11.27
2023-03-02T04:54:08.764Z,11.10
2023-03-02T04:56:35.544Z,11.27
2023-03-02T04:59:02.501Z,10.98
2023-03-02T05:01:29.129Z,11.52
2023-03-02T05:03:56.038Z,11.23
2023-03-02T05:06:25.099Z,11.33
2023-03-02T05:08:52.988Z,10.32
2023-03-02T05:11:23.299Z,11.35
2023-03-02T05:13:52.307Z,11.55
2023-03-02T05:16:20.125Z,11.77
2023-03-02T05:18:47.035Z,11.67
2023-03-02T05:21:14.975Z,10.82
2023-03-02T05:23:42.549Z,12.18
2023-03-02T05:26:09.691Z,10.50
2023-03-02T05:28:36.669Z,10.00
2023-03-02T05:31:03.552Z,10.63
2023-03-02T05:33:30.581Z,11.40
2023-03-02T05:35:57.430Z,11.43
2023-03-02T05:38:24.007Z,10.43
2023-03-02T05:40:50.568Z,10.85
2023-03-02T05:43:19.240Z,11.57
2023-03-02T05:45:46.243Z,12.02
2023-03-02T05:48:13.790Z,12.43
2023-03-02T05:50:40.776Z,11.23
2023-03-02T05:53:07.597Z,11.85
2023-03-02T05:55:37.156Z,11.10
2023-03-02T05:58:09.090Z,11.00
2023-03-02T06:00:35.758Z,11.02
2023-03-02T06:03:02.311Z,11.90
2023-03-02T06:05:28.828Z,11.73
2023-03-02T06:07:56.067Z,11.50
2023-03-02T06:10:23.149Z,13.10
2023-03-02T06:12:49.801Z,11.77
2023-03-02T06:15:16.363Z,11.50
2023-03-02T06:17:43.061Z,11.40
2023-03-02T06:20:11.303Z,11.13
2023-03-02T06:22:46.391Z,10.85
2023-03-02T06:25:16.369Z,11.70
2023-03-02T06:27:43.785Z,11.73
2023-03-02T06:30:14.529Z,11.10
2023-03-02T06:32:41.494Z,11.70
2023-03-02T06:35:09.022Z,11.73
2023-03-02T06:37:35.534Z,11.65
2023-03-02T06:40:02.067Z,11.93
2023-03-02T06:42:28.789Z,12.63
2023-03-02T06:44:55.250Z,10.83
2023-03-02T06:47:23.124Z,11.20
2023-03-02T06:49:49.699Z,11.65
2023-03-02T06:52:16.891Z,11.88
2023-03-02T06:54:43.487Z,12.25
2023-03-02T06:57:10.320Z,13.60
2023-03-02T06:59:36.768Z,11.57
2023-03-02T07:02:03.610Z,11.00
2023-03-02T07:04:30.151Z,12.32
2023-03-02T07:06:56.986Z,12.38
2023-03-02T07:09:23.628Z,11.40
2023-03-02T07:11:50.295Z,11.27
2023-03-02T07:14:16.805Z,10.80
2023-03-02T07:16:43.357Z,11.57
2023-03-02T07:19:13.989Z,11.57
2023-03-02T07:21:41.197Z,11.53
2023-03-02T07:24:08.116Z,12.35
2023-03-02T07:26:34.714Z,11.48
2023-03-02T07:29:01.225Z,12.25
2023-03-02T07:31:28.158Z,11.90
2023-03-02T07:33:54.703Z,10.80
2023-03-02T07:36:21.169Z,11.43
2023-03-02T07:38:48.644Z,11.93
2023-03-02T07:41:16.803Z,11.18
2023-03-02T07:43:43.898Z,11.73
2023-03-02T07:46:10.624Z,12.77
2023-03-02T07:48:37.280Z,12.23
2023-03-02T07:51:05.791Z,11.60
2023-03-02T07:53:32.742Z,10.65
2023-03-02T07:56:01.389Z,10.32
2023-03-02T07:58:28.076Z,10.97
2023-03-02T08:00:54.561Z,10.52
2023-03-02T08:03:21.100Z,11.57
2023-03-02T08:05:47.543Z,10.02
2023-03-02T08:08:14.021Z,10.77
2023-03-02T08:10:40.533Z,10.70
2023-03-02T08:13:07.108Z,9.32
2023-03-02T08:15:33.628Z,11.25
2023-03-02T08:18:00.372Z,11.00
2023-03-02T08:20:26.871Z,10.43
2023-03-02T08:22:53.423Z,10.70
2023-03-02T08:25:19.935Z,10.45
2023-03-02T08:27:47.138Z,10.18
2023-03-02T08:30:14.296Z,10.20
2023-03-02T08:32:40.924Z,9.82
2023-03-02T08:35:07.873Z,9.73
2023-03-02T08:37:34.565Z,10.52
2023-03-02T08:40:01.210Z,9.75
2023-03-02T08:42:27.795Z,9.30
2023-03-02T08:44:54.279Z,9.73
2023-03-02T08:47:20.731Z,9.10
2023-03-02T08:49:48.353Z,10.07
2023-03-02T08:52:15.435Z,10.10
2023-03-02T08:54:42.400Z,9.57
2023-03-02T08:57:12.011Z,6.90
2023-03-02T08:59:38.585Z,8.57
2023-03-02T09:02:05.117Z,9.27
2023-03-02T09:04:31.736Z,9.50
2023-03-02T09:06:58.217Z,9.07
2023-03-02T09:09:24.690Z,9.77
2023-03-02T09:11:51.180Z,9.63
2023-03-02T09:14:17.749Z,9.60
2023-03-02T09:16:45.429Z,9.98
2023-03-02T09:19:13.176Z,8.48
2023-03-02T09:21:39.744Z,10.30
2023-03-02T09:24:06.447Z,9.27
2023-03-02T09:26:33.053Z,9.60
2023-03-02T09:28:59.606Z,10.05
2023-03-02T09:31:27.918Z,9.35
2023-03-02T09:33:57.152Z,10.13
2023-03-02T09:36:25.706Z,8.50
2023-03-02T09:38:52.782Z,9.10
2023-03-02T09:41:19.286Z,9.05
2023-03-02T09:43:45.760Z,8.48
2023-03-02T09:46:30.342Z,10.13
2023-03-02T09:49:30.202Z,9.10
2023-03-02T09:52:35.352Z,9.50
2023-03-02T09:55:24.250Z,8.82
2023-03-02T09:57:51.310Z,9.73
2023-03-02T10:00:36.832Z,9.10
2023-03-02T10:03:16.663Z,8.67
2023-03-02T10:05:54.161Z,9.45
2023-03-02T10:08:27.137Z,8.45
2023-03-02T10:11:12.726Z,9.90
2023-03-02T10:13:40.694Z,8.00
2023-03-02T10:16:15.950Z,7.77
2023-03-02T10:18:51.526Z,7.88
2023-03-02T10:21:38.298Z,8.10
2023-03-02T10:24:10.942Z,8.70
2023-03-02T10:26:37.363Z,7.97
2023-03-02T10:29:26.557Z,8.80
2023-03-02T10:31:59.958Z,9.20
2023-03-02T10:34:30.047Z,7.20
2023-03-02T10:36:57.546Z,9.15
2023-03-02T10:39:24.083Z,8.93
2023-03-02T10:42:03.593Z,8.40
2023-03-02T10:44:37.710Z,7.03
2023-03-02T10:47:05.940Z,7.30
2023-03-02T10:49:39.376Z,7.90
2023-03-02T10:52:12.066Z,7.60
2023-03-02T10:54:38.927Z,7.13
2023-03-02T10:57:28.530Z,7.03
2023-03-02T11:00:25.534Z,7.35
2023-03-02T11:03:00.513Z,7.72
2023-03-02T11:05:39.004Z,6.82
2023-03-02T11:08:09.824Z,6.57
2023-03-02T11:10:40.868Z,6.88
2023-03-02T11:13:37.670Z,6.80
2023-03-02T11:16:19.539Z,6.22
2023-03-02T11:18:52.575Z,7.03
2023-03-02T11:21:23.876Z,6.57
2023-03-02T11:24:18.322Z,7.20
2023-03-02T11:26:54.784Z,7.15
2023-03-02T11:29:40.112Z,5.95
2023-03-02T11:32:19.196Z,6.88
2023-03-02T11:35:03.641Z,6.60
2023-03-02T11:37:37.980Z,6.63
2023-03-02T11:40:26.545Z,5.15
2023-03-02T11:42:56.728Z,5.60
2023-03-02T11:45:27.410Z,6.07
2023-03-02T11:48:03.683Z,6.17
2023-03-02T11:50:34.288Z,6.40
2023-03-02T11:53:06.307Z,5.50
2023-03-02T11:55:40.564Z,5.03
2023-03-02T11:58:07.742Z,5.10
2023-03-02T12:00:42.373Z,4.80
2023-03-02T12:03:14.668Z,5.10
2023-03-02T12:05:43.999Z,5.68
2023-03-02T12:08:19.751Z,6.43
2023-03-02T12:11:18.589Z,6.60
2023-03-02T12:13:48.924Z,6.27
2023-03-02T12:16:23.450Z,5.60
2023-03-02T12:18:53.646Z,5.03
2023-03-02T12:21:21.317Z,4.70
2023-03-02T12:23:59.884Z,5.55
2023-03-02T12:26:36.376Z,4.80
2023-03-02T12:29:23.537Z,4.93
2023-03-02T12:31:51.741Z,5.18
2023-03-02T12:34:24.331Z,5.43
2023-03-02T12:36:54.672Z,5.30
2023-03-02T12:39:23.996Z,5.40
2023-03-02T12:41:59.773Z,4.75
2023-03-02T12:44:51.965Z,4.68
2023-03-02T12:47:29.606Z,4.40
2023-03-02T12:50:00.287Z,5.25
2023-03-02T12:52:32.885Z,5.83
2023-03-02T12:55:15.387Z,5.15
2023-03-02T12:57:53.971Z,5.45
2023-03-02T13:00:23.734Z,4.00
2023-03-02T13:02:52.581Z,4.28
2023-03-02T13:05:25.972Z,4.47
2023-03-02T13:07:58.519Z,3.42
2023-03-02T13:10:48.602Z,4.38
2023-03-02T13:13:22.921Z,3.78
2023-03-02T13:15:55.226Z,4.00
2023-03-02T13:18:23.651Z,3.93
2023-03-02T13:20:50.969Z,3.85
2023-03-02T13:23:19.073Z,3.47
2023-03-02T13:25:52.967Z,4.53
2023-03-02T13:28:39.566Z,6.03
2023-03-02T13:31:18.059Z,5.87
2023-03-02T13:33:46.121Z,6.38
2023-03-02T13:36:21.614Z,6.65
2023-03-02T13:38:50.841Z,7.25
2023-03-02T13:41:29.411Z,6.45
2023-03-02T13:43:56.464Z,8.23
2023-03-02T13:46:22.878Z,7.43
2023-03-02T13:49:09.245Z,7.28
2023-03-02T13:51:42.512Z,7.70
2023-03-02T13:54:25.099Z,7.45
2023-03-02T13:56:53.513Z,6.97
2023-03-02T13:59:21.867Z,7.10
2023-03-02T14:01:48.683Z,6.35
2023-03-02T14:04:17.938Z,6.60
2023-03-02T14:06:47.607Z,6.57
2023-03-02T14:09:14.361Z,6.43
2023-03-02T14:11:47.604Z,7.00
2023-03-02T14:14:17.736Z,6.60
2023-03-02T14:16:44.468Z,6.75
2023-03-02T14:19:22.003Z,6.85
2023-03-02T14:21:48.474Z,7.40
2023-03-02T14:24:15.367Z,6.80
2023-03-02T14:26:44.502Z,6.90
2023-03-02T14:29:24.832Z,6.45
2023-03-02T14:31:51.627Z,6.38
2023-03-02T14:34:18.230Z,6.50
2023-03-02T14:36:48.004Z,6.72
2023-03-02T14:39:38.713Z,6.95
2023-03-02T14:42:11.052Z,7.13
2023-03-02T14:44:37.551Z,6.80
2023-03-02T14:47:04.105Z,6.93
2023-03-02T14:49:30.603Z,7.47
2023-03-02T14:52:19.491Z,7.25
2023-03-02T14:54:59.549Z,7.57
2023-03-02T14:57:28.687Z,7.78
2023-03-02T14:59:56.570Z,6.93
2023-03-02T15:02:26.945Z,7.43
2023-03-02T15:04:57.602Z,7.82
2023-03-02T15:07:26.326Z,6.95
2023-03-02T15:09:52.842Z,7.30
2023-03-02T15:12:19.408Z,6.90
2023-03-02T15:14:45.896Z,7.20
2023-03-02T15:17:12.423Z,6.45
2023-03-02T15:19:38.925Z,7.50
2023-03-02T15:22:05.462Z,7.35
2023-03-02T15:24:33.358Z,7.40
2023-03-02T15:27:00.581Z,7.40
2023-03-02T15:29:27.195Z,8.27
2023-03-02T15:31:53.851Z,8.75
2023-03-02T15:34:20.683Z,8.90
2023-03-02T15:36:47.149Z,8.77
2023-03-02T15:39:14.628Z,9.20
2023-03-02T15:41:44.434Z,8.60
2023-03-02T15:44:22.959Z,8.80
2023-03-02T15:46:51.672Z,8.85
2023-03-02T15:49:23.077Z,8.70
2023-03-02T15:51:51.921Z,7.90
2023-03-02T15:54:18.904Z,7.80
2023-03-02T15:56:45.394Z,7.03
2023-03-02T15:59:12.049Z,7.40
2023-03-02T16:01:38.540Z,7.37
2023-03-02T16:04:05.095Z,6.85
2023-03-02T16:06:31.573Z,7.10
2023-03-02T16:08:58.073Z,7.25
2023-03-02T16:11:24.559Z,6.85
2023-03-02T16:13:51.775Z,6.90
2023-03-02T16:16:20.717Z,6.93
2023-03-02T16:18:54.872Z,6.72
2023-03-02T16:21:21.782Z,7.20
2023-03-02T16:23:49.205Z,6.93
2023-03-02T16:26:19.422Z,7.13
2023-03-02T16:28:46.253Z,7.35
2023-03-02T16:31:17.441Z,7.22
2023-03-02T16:33:44.698Z,7.40
2023-03-02T16:36:11.560Z,8.05
2023-03-02T16:38:38.788Z,8.17
2023-03-02T16:41:13.185Z,8.63
2023-03-02T16:43:48.395Z,8.93
2023-03-02T16:46:16.210Z,8.40
2023-03-02T16:48:43.914Z,9.23
2023-03-02T16:51:10.671Z,8.60
2023-03-02T16:53:37.664Z,9.55
2023-03-02T16:56:04.315Z,9.05
2023-03-02T16:58:30.802Z,8.48
2023-03-02T17:00:57.446Z,9.05
2023-03-02T17:03:24.033Z,9.17
2023-03-02T17:05:51.248Z,8.88
2023-03-02T17:08:17.774Z,8.10
2023-03-02T17:10:44.592Z,8.30
2023-03-02T17:13:12.355Z,8.40
2023-03-02T17:15:39.714Z,7.97
2023-03-02T17:18:06.284Z,8.95
2023-03-02T17:20:32.874Z,7.88
2023-03-02T17:23:00.265Z,8.10
2023-03-02T17:25:26.887Z,8.32
2023-03-02T17:27:53.402Z,8.00
2023-03-02T17:30:20.193Z,8.15
2023-03-02T17:32:47.116Z,7.75
2023-03-02T17:35:15.277Z,7.90
2023-03-02T17:37:42.446Z,8.27
2023-03-02T17:40:13.241Z,7.07
2023-03-02T17:42:39.809Z,7.88
2023-03-02T17:45:07.184Z,8.10
2023-03-02T17:47:34.412Z,7.85
2023-03-02T17:50:02.882Z,6.80
2023-03-02T17:52:29.949Z,6.70
2023-03-02T17:54:56.508Z,7.75
2023-03-02T17:57:23.190Z,6.80
2023-03-02T17:59:53.029Z,7.07
2023-03-02T18:02:19.607Z,7.20
2023-03-02T18:04:46.062Z,7.00
2023-03-02T18:07:13.010Z,6.65
2023-03-02T18:09:39.844Z,6.60
2023-03-02T18:12:07.592Z,6.50
2023-03-02T18:14:36.303Z,6.70
2023-03-02T18:17:04.987Z,6.23
2023-03-02T18:19:31.655Z,6.13
2023-03-02T18:21:58.186Z,6.10
2023-03-02T18:24:25.621Z,6.90
2023-03-02T18:26:52.135Z,6.80
2023-03-02T18:29:18.639Z,6.67
2023-03-02T18:31:45.346Z,6.65
2023-03-02T18:34:11.802Z,6.13
2023-03-02T18:36:38.455Z,6.07
2023-03-02T18:39:04.936Z,6.28
2023-03-02T18:41:32.424Z,6.27
2023-03-02T18:44:01.303Z,5.57
2023-03-02T18:46:30.591Z,5.97
2023-03-02T18:48:57.828Z,5.95
2023-03-02T18:51:25.127Z,5.20
2023-03-02T18:53:51.936Z,5.37
2023-03-02T18:56:19.068Z,5.50
2023-03-02T18:58:46.830Z,5.30
2023-03-02T19:01:13.796Z,6.15
2023-03-02T19:03:41.911Z,5.53
2023-03-02T19:06:09.004Z,6.23
2023-03-02T19:08:36.070Z,5.82
2023-03-02T19:11:02.611Z,5.65
2023-03-02T19:13:29.080Z,5.95
2023-03-02T19:15:55.596Z,5.85
2023-03-02T19:18:24.276Z,6.03
2023-03-02T19:20:51.846Z,6.07
2023-03-02T19:23:18.803Z,6.50
2023-03-02T19:25:45.648Z,6.53
2023-03-02T19:28:12.342Z,5.97
2023-03-02T19:30:40.161Z,6.10
2023-03-02T19:33:09.238Z,6.47
2023-03-02T19:35:40.098Z,6.60
2023-03-02T19:38:07.914Z,6.15
2023-03-02T19:40:35.343Z,6.70
2023-03-02T19:43:02.691Z,6.27
2023-03-02T19:45:32.741Z,6.38
2023-03-02T19:48:00.879Z,6.43
2023-03-02T19:50:28.125Z,5.82
2023-03-02T19:52:55.356Z,6.07
2023-03-02T19:55:24.229Z,6.87
2023-03-02T19:57:56.379Z,6.45
2023-03-02T20:00:23.995Z,7.40
2023-03-02T20:02:50.633Z,7.00
2023-03-02T20:05:17.307Z,6.05
2023-03-02T20:07:43.853Z,7.03
2023-03-02T20:10:12.813Z,7.10
2023-03-02T20:12:39.291Z,7.00
2023-03-02T20:15:06.690Z,7.43
2023-03-02T20:17:33.845Z,7.22
2023-03-02T20:20:01.327Z,7.07
2023-03-02T20:22:27.904Z,6.57
2023-03-02T20:24:54.436Z,7.18
2023-03-02T20:27:21.234Z,7.13
2023-03-02T20:29:48.278Z,6.93
2023-03-02T20:32:15.069Z,7.37
2023-03-02T20:34:42.907Z,7.68
2023-03-02T20:37:11.982Z,7.15
2023-03-02T20:39:40.776Z,8.00
2023-03-02T20:42:08.652Z,8.57
2023-03-02T20:44:36.310Z,9.00
2023-03-02T20:47:08.253Z,8.90
2023-03-02T20:49:36.653Z,9.77
2023-03-02T20:52:05.227Z,9.05
2023-03-02T20:54:35.002Z,10.82
2023-03-02T20:57:01.587Z,9.63
2023-03-02T20:59:28.643Z,10.07
2023-03-02T21:01:55.373Z,10.13
2023-03-02T21:04:22.100Z,10.50
2023-03-02T21:06:51.909Z,10.32
2023-03-02T21:09:18.739Z,10.00
2023-03-02T21:11:47.084Z,10.00
2023-03-02T21:14:14.177Z,11.18
2023-03-02T21:16:42.677Z,11.15
2023-03-02T21:19:13.570Z,10.70
2023-03-02T21:21:42.245Z,10.87
2023-03-02T21:24:11.530Z,10.35
2023-03-02T21:26:38.894Z,11.10
2023-03-02T21:29:05.884Z,11.32
2023-03-02T21:31:32.713Z,10.63
2023-03-02T21:34:00.088Z,10.23
2023-03-02T21:36:27.552Z,11.07
2023-03-02T21:38:54.363Z,11.45
2023-03-02T21:41:21.656Z,10.32
2023-03-02T21:43:48.727Z,11.13
2023-03-02T21:46:18.997Z,10.23
2023-03-02T21:48:46.651Z,10.75
2023-03-02T21:51:13.823Z,10.20
2023-03-02T21:53:40.569Z,12.23
2023-03-02T21:56:07.770Z,11.43
2023-03-02T21:58:34.533Z,10.63
2023-03-02T22:01:01.039Z,11.85
2023-03-02T22:03:27.499Z,11.15
2023-03-02T22:05:54.041Z,10.73
2023-03-02T22:08:21.427Z,10.82
2023-03-02T22:10:50.368Z,10.70
2023-03-02T22:13:23.715Z,11.77
2023-03-02T22:15:57.912Z,11.80
2023-03-02T22:18:27.090Z,11.02
2023-03-02T22:20:53.625Z,11.00
2023-03-02T22:23:23.331Z,10.87
2023-03-02T22:25:53.269Z,10.90
2023-03-02T22:28:22.477Z,11.57
2023-03-02T22:30:50.959Z,10.98
2023-03-02T22:33:25.796Z,11.35
2023-03-02T22:35:59.042Z,11.30
2023-03-02T22:38:28.421Z,10.77
2023-03-02T22:40:55.956Z,10.00
2023-03-02T22:43:26.718Z,10.77
2023-03-02T22:45:58.281Z,10.35
2023-03-02T22:48:26.194Z,9.97
2023-03-02T22:50:52.705Z,9.73
2023-03-02T22:53:25.034Z,9.88
2023-03-02T22:56:03.496Z,9.23
2023-03-02T22:58:42.608Z,9.50
2023-03-02T23:01:27.783Z,9.47
2023-03-02T23:04:01.792Z,9.90
2023-03-02T23:06:31.299Z,8.93
2023-03-02T23:09:02.796Z,9.57
2023-03-02T23:11:35.801Z,10.10
2023-03-02T23:14:11.281Z,9.57
2023-03-02T23:16:37.804Z,9.18
2023-03-02T23:19:04.872Z,9.88
2023-03-02T23:21:41.151Z,8.80
2023-03-02T23:24:08.797Z,9.43
2023-03-02T23:26:35.869Z,9.27
2023-03-02T23:29:02.380Z,8.68
2023-03-02T23:31:28.961Z,8.98
2023-03-02T23:33:55.534Z,8.75
2023-03-02T23:36:22.084Z,8.40
2023-03-02T23:38:49.615Z,8.50
2023-03-02T23:41:16.666Z,8.55
2023-03-02T23:43:43.211Z,8.02
2023-03-02T23:46:13.984Z,8.20
2023-03-02T23:48:42.199Z,7.78
2023-03-02T23:51:09.475Z,7.47
2023-03-02T23:53:35.990Z,7.07
2023-03-02T23:56:02.523Z,7.50
2023-03-02T23:58:29.005Z,7.60
